createdAt,value
2022-10-15T00:00:00.000Z,7.69
2022-10-15T00:15:00.000Z,7.27
2022-10-15T00:30:00.000Z,7.11
2022-10-15T00:45:00.000Z,6.89
2022-10-15T01:00:00.000Z,7.4
2022-10-15T01:15:00.000Z,7.13
2022-10-15T01:30:00.000Z,7.18
2022-10-15T01:45:00.000Z,7.07
2022-10-15T02:00:00.000Z,7.09
2022-10-15T02:15:00.000Z,7.12
2022-10-15T02:30:00.000Z,7.36
2022-10-15T02:45:00.000Z,7.31
2022-10-15T03:00:00.000Z,7.39
2022-10-15T03:15:00.000Z,7.06
2022-10-15T03:30:00.000Z,7.06
2022-10-15T03:45:00.000Z,7.19
2022-10-15T04:00:00.000Z,7.21
2022-10-15T04:15:00.000Z,7.15
2022-10-15T04:30:00.000Z,7.13
2022-10-15T04:45:00.000Z,6.52
2022-10-15T05:00:00.000Z,6.64
2022-10-15T05:15:00.000Z,7.18
2022-10-15T05:30:00.000Z,7.39
2022-10-15T05:45:00.000Z,8.64
2022-10-15T06:00:00.000Z,9.62
2022-10-15T06:15:00.000Z,9.33
2022-10-15T06:30:00.000Z,10.19
2022-10-15T06:45:00.000Z,10.06
2022-10-15T07:00:00.000Z,10.24
2022-10-15T07:15:00.000Z,8.01
2022-10-15T07:30:00.000Z,8.65
2022-10-15T07:45:00.000Z,10.35
2022-10-15T08:00:00.000Z,10.2
2022-10-15T08:15:00.000Z,11.04
2022-10-15T08:30:00.000Z,10.41
2022-10-15T08:45:00.000Z,11.61
2022-10-15T09:00:00.000Z,12.25
2022-10-15T09:15:00.000Z,12.32
2022-10-15T09:30:00.000Z,11.31
2022-10-15T09:45:00.000Z,10.16
2022-10-15T10:00:00.000Z,9.72
2022-10-15T10:15:00.000Z,9.81
2022-10-15T10:30:00.000Z,11.05
2022-10-15T10:45:00.000Z,10.42
2022-10-15T11:00:00.000Z,11.05
2022-10-15T11:15:00.000Z,10.81
2022-10-15T11:30:00.000Z,10.75
2022-10-15T11:45:00.000Z,9.21
2022-10-15T12:00:00.000Z,10.16
2022-10-15T12:15:00.000Z,10.07
2022-10-15T12:30:00.000Z,9.82
2022-10-15T12:45:00.000Z,9.76
2022-10-15T13:00:00.000Z,8.34
2022-10-15T13:15:00.000Z,7.11
2022-10-15T13:30:00.000Z,7.02
2022-10-15T13:45:00.000Z,7.25
2022-10-15T14:00:00.000Z,7.16
2022-10-15T14:15:00.000Z,7.31
2022-10-15T14:30:00.000Z,7.91
2022-10-15T14:45:00.000Z,8.28
2022-10-15T15:00:00.000Z,7.44
2022-10-15T15:15:00.000Z,7.27
2022-10-15T15:30:00.000Z,7.39
2022-10-15T15:45:00.000Z,7.24
2022-10-15T16:00:00.000Z,7.32
2022-10-15T16:15:00.000Z,7.6
2022-10-15T16:30:00.000Z,7.51
2022-10-15T16:45:00.000Z,7.47
2022-10-15T17:00:00.000Z,7.58
2022-10-15T17:15:00.000Z,7.99
2022-10-15T17:30:00.000Z,10.41
2022-10-15T17:45:00.000Z,8.19
2022-10-15T18:00:00.000Z,8.84
2022-10-15T18:15:00.000Z,7.47
2022-10-15T18:30:00.000Z,7.48
2022-10-15T18:45:00.000Z,8.46
2022-10-15T19:00:00.000Z,7.22
2022-10-15T19:15:00.000Z,7.76
2022-10-15T19:30:00.000Z,7.33
2022-10-15T19:45:00.000Z,7.47
2022-10-15T20:00:00.000Z,7.19
2022-10-15T20:15:00.000Z,7.32
2022-10-15T20:30:00.000Z,7.8
2022-10-15T20:45:00.000Z,9.76
2022-10-15T21:00:00.000Z,7.89
2022-10-15T21:15:00.000Z,7.46
2022-10-15T21:30:00.000Z,8.89
2022-10-15T21:45:00.000Z,7.27
2022-10-15T22:00:00.000Z,7.48
2022-10-15T22:15:00.000Z,7.31
2022-10-15T22:45:00.000Z,7
2022-10-15T22:45:00.000Z,7.11
2022-10-15T23:00:00.000Z,7.13
2022-10-15T23:15:00.000Z,7.13
2022-10-15T23:30:00.000Z,7.05
2022-10-15T23:45:00.000Z,7.09
